createdAt,value
2023-02-09T00:01:21.830Z,107.30
2023-02-09T00:20:51.886Z,109.30
2023-02-09T00:27:17.690Z,111.40
2023-02-09T00:33:42.030Z,117.40
2023-02-09T01:09:00.585Z,121.00
2023-02-09T01:22:56.184Z,122.00
2023-02-09T01:28:15.412Z,126.80
2023-02-09T03:02:37.289Z,124.90
2023-02-09T03:22:30.245Z,119.80
2023-02-09T03:41:54.524Z,176.90
2023-02-09T03:49:10.339Z,119.00
2023-02-09T05:10:47.453Z,124.10
2023-02-09T05:17:12.514Z,122.00
2023-02-09T05:23:20.673Z,117.90
2023-02-09T05:29:34.149Z,118.90
2023-02-09T05:35:08.539Z,119.20
2023-02-09T05:41:33.222Z,119.80
2023-02-09T05:47:57.955Z,109.50
2023-02-09T05:53:59.808Z,118.90
2023-02-09T06:00:24.408Z,115.70
2023-02-09T06:06:03.986Z,111.10
2023-02-09T06:11:30.051Z,111.00
2023-02-09T06:17:17.008Z,125.10
2023-02-09T06:23:23.527Z,118.50
2023-02-09T06:29:16.851Z,120.90
2023-02-09T06:42:44.475Z,120.90
2023-02-09T06:50:04.861Z,127.10
2023-02-09T07:02:23.501Z,124.80
2023-02-09T07:08:40.649Z,117.50
2023-02-09T07:14:02.683Z,109.10
2023-02-09T07:19:46.590Z,115.40
2023-02-09T07:26:13.494Z,116.20
2023-02-09T07:31:27.215Z,113.70
2023-02-09T07:37:36.228Z,121.90
2023-02-09T07:43:43.467Z,124.00
2023-02-09T08:06:55.089Z,116.90
2023-02-09T08:13:21.948Z,104.80
2023-02-09T08:19:47.301Z,112.30
2023-02-09T08:25:43.268Z,95.60
2023-02-09T08:32:02.390Z,98.10
2023-02-09T08:38:27.155Z,111.70
2023-02-09T08:44:54.698Z,115.20
2023-02-09T08:50:47.084Z,108.90
2023-02-09T10:06:42.899Z,77.00
2023-02-09T10:12:58.929Z,68.00
2023-02-09T10:19:08.586Z,73.90
2023-02-09T10:25:48.861Z,75.90
2023-02-09T10:31:55.583Z,68.70
2023-02-09T11:49:30.958Z,50.00
2023-02-09T11:55:20.412Z,50.00
2023-02-09T12:01:35.864Z,44.50
2023-02-09T12:08:05.524Z,51.50
2023-02-09T12:42:02.115Z,36.90
2023-02-09T12:48:21.504Z,39.80
2023-02-09T12:54:31.547Z,46.90
2023-02-09T13:05:58.993Z,37.60
2023-02-09T13:12:28.160Z,39.50
2023-02-09T13:18:22.580Z,38.60
2023-02-09T13:24:34.310Z,39.10
2023-02-09T13:30:41.396Z,39.90
2023-02-09T13:36:53.033Z,44.70
2023-02-09T13:42:54.770Z,50.30
2023-02-09T13:49:00.708Z,42.00
2023-02-09T13:55:18.127Z,41.70
2023-02-09T14:01:39.725Z,30.20
2023-02-09T14:08:04.705Z,42.70
2023-02-09T14:13:51.853Z,35.30
2023-02-09T14:19:58.985Z,28.30
2023-02-09T15:45:55.580Z,37.90
2023-02-09T15:51:50.677Z,35.90
2023-02-09T15:57:55.684Z,34.80
2023-02-09T16:04:20.016Z,43.10
2023-02-09T16:13:00.799Z,28.30
2023-02-09T17:16:37.625Z,41.50
2023-02-09T18:06:09.545Z,35.10
2023-02-09T18:12:26.329Z,35.90
2023-02-09T18:19:04.596Z,39.60
2023-02-09T18:25:21.775Z,40.30
2023-02-09T18:31:32.010Z,45.20
2023-02-09T18:37:47.301Z,44.60
2023-02-09T18:44:16.536Z,158.10
2023-02-09T18:50:34.281Z,50.70
2023-02-09T18:56:37.998Z,44.70
2023-02-09T20:08:39.785Z,52.00
2023-02-09T20:14:44.780Z,51.20
2023-02-09T20:20:11.340Z,50.50
2023-02-09T20:26:10.768Z,52.00
2023-02-09T20:32:13.036Z,52.80
2023-02-09T20:38:00.405Z,50.40
2023-02-09T20:44:11.120Z,50.20
2023-02-09T20:49:36.003Z,56.00
2023-02-09T20:55:36.856Z,48.70
2023-02-09T21:01:55.954Z,54.10
2023-02-09T21:07:56.543Z,55.90
2023-02-09T21:14:21.995Z,51.30
2023-02-09T21:21:17.861Z,59.70
2023-02-09T21:26:52.908Z,58.70
2023-02-09T21:32:47.011Z,63.10
2023-02-09T21:38:21.135Z,72.40
2023-02-09T21:43:47.354Z,72.70
2023-02-09T21:49:08.128Z,69.90
2023-02-09T21:55:14.890Z,73.60
2023-02-09T22:02:26.199Z,70.10
2023-02-09T22:08:30.578Z,70.90
2023-02-09T22:14:30.238Z,59.90
2023-02-09T22:20:47.617Z,62.30
2023-02-09T22:26:45.187Z,64.50
2023-02-09T22:33:00.643Z,65.60
2023-02-09T22:39:18.222Z,66.00
2023-02-09T22:51:29.625Z,60.60
2023-02-09T22:57:45.497Z,59.60
2023-02-09T23:04:02.633Z,62.60
2023-02-09T23:10:23.594Z,58.60
2023-02-09T23:50:38.596Z,54.70
2023-02-09T23:56:35.056Z,64.30
